Cape Girardeau, MO

11:24 PM CDT on July 29, 2016 (GMT -0500)
Cape Girardeau | | Change Station

Elev 404 ft 37.34 °N, 89.57 °W | Updated 27 seconds ago

Clear
Clear
71.1 °F
Feels Like 71.1 °F
N
0.0
Wind Variable Wind from SE

Today
High -- | Low -- °F
--% Chance of Precip.
Yesterday
High -- | Low -- °F
Precip. -- in
Pressure 29.93 in
Visibility 10.0 miles
Clouds Clear
Dew Point 68 °F
Humidity 90%
Rainfall 0.05 in
Snow Depth Not available.
6:00 AM 8:08 PM
Waning Crescent, 16% visible
METAR KCGI 300353Z AUTO 19004KT 10SM CLR 22/21 A2994 RMK AO2 SLP135 T02170206
Pressure 29.93 in
Visibility 10.0 miles
Clouds Clear
Dew Point 68 °F
Humidity 90%
Rainfall 0.05 in
Snow Depth Not available.
6:00 AM 8:08 PM
Waning Crescent, 16% visible
METAR KCGI 300353Z AUTO 19004KT 10SM CLR 22/21 A2994 RMK AO2 SLP135 T02170206

10-Day Weather Forecast

Almanac

Astronomy

Jul. 29, 2016 Rise Set
Actual Time
Civil Twilight
Nautical Twilight
Astronomical Twilight
Moon
Length of Visible Light
Length of Day
Tomorrow will be .
, % of the Moon is Illuminated

Today's Extremes

State Highs State Lows

Community

WunderPhotos

Upload Photos

1,928,506 photos uploaded!

WunderBlog® & News

Nearby

Air Quality

  Air Quality AQ Index Pollutant
Not available.

Snow Depth

Station Depth Elevation

Earthquake Activity

City Distance Mag. Time & Date
Minimum magnitude displayed is 2.5.

Coastal Water Temperatures

Place Temperature

Stations

Nearby Weather Stations

Station Location Temp. Windchill Dew Point Humidity Wind Precip. Elev Updated Type
                   

Watches & Warnings

There are currently no watches in effect.